Time;durP1;ratioP1;P1;durP2;ratioP2;P2;SDS_P1;SDS_P2;PMS_P1;PMS_P2;Temp;Humidity;BMP_temperature;BMP_pressure;BME280_temperature;BME280_humidity;BME280_pressure;Samples;Min_cycle;Max_cycle;Signal;HPM_P1;HPM_P2
2023/09/03 00:00:14;;;;;;;;;;;;;;;20.19;77.60;100480.88;1087075;54;19975;-80
2023/09/03 00:01:17;;;;;;;;;;;;;;;20.18;77.46;100467.50;1086949;54;19953;-80
2023/09/03 00:02:18;;;;;;;;;;;;;;;20.19;77.41;100469.19;1086820;54;19951;-79
2023/09/03 00:03:21;;;;;;;;;;;;;;;20.19;77.35;100469.19;1086952;47;19969;-79
2023/09/03 00:04:21;;;;;;;;;;;;;;;20.18;77.72;100472.94;1087074;54;19942;-79
2023/09/03 00:05:25;;;;;;;;;;;;;;;20.19;77.22;100477.34;1086950;47;19942;-79
2023/09/03 00:06:26;;;;;;;;;;;;;;;20.18;77.45;100478.38;1087071;54;20950;-79
2023/09/03 00:07:29;;;;;;;;;;;;;;;20.14;78.14;100483.34;1087007;54;19949;-78
2023/09/03 00:08:30;;;;;;;;;;;;;;;20.13;77.98;100481.66;1087032;54;19942;-79
2023/09/03 00:09:33;;;;;;;;;;;;;;;20.12;77.69;100479.16;1087100;54;19947;-79
2023/09/03 00:10:37;;;;;;;;;;;;;;;20.10;78.08;100482.06;1087157;54;19968;-79
2023/09/03 00:11:40;;;;;;;;;;;;;;;20.04;78.23;100480.13;1086991;47;19950;-79
2023/09/03 00:12:41;;;;;;;;;;;;;;;20.04;78.61;100480.13;1087670;39;20361;-80
2023/09/03 00:13:45;;;;;;;;;;;;;;;20.00;78.46;100476.13;1087006;47;19949;-79
2023/09/03 00:14:45;;;;;;;;;;;;;;;19.94;78.91;100481.31;1086933;54;19950;-80
2023/09/03 00:15:49;;;;;;;;;;;;;;;19.98;78.22;100478.22;1087053;54;19954;-79
2023/09/03 00:16:50;;;;;;;;;;;;;;;19.96;78.45;100475.69;1086944;54;19942;-79
2023/09/03 00:17:53;;;;;;;;;;;;;;;20.00;77.99;100478.84;1086925;47;19974;-79
2023/09/03 00:18:54;;;;;;;;;;;;;;;20.03;77.58;100478.47;1087148;54;19968;-80
2023/09/03 00:26:51;;;;;;;;;;;;;;;19.94;77.95;100475.03;1087042;47;19943;-79
2023/09/03 00:27:54;;;;;;;;;;;;;;;19.94;78.19;100478.59;1086882;47;19942;-80
2023/09/03 00:28:57;;;;;;;;;;;;;;;19.95;78.20;100476.72;1086991;54;19968;-78
2023/09/03 00:29:58;;;;;;;;;;;;;;;19.97;77.95;100484.69;1087043;54;19944;-79
2023/09/03 00:31:05;;;;;;;;;;;;;;;19.97;78.13;100480.06;1087030;54;19942;-79
2023/09/03 00:32:06;;;;;;;;;;;;;;;19.96;78.45;100475.69;1087244;54;19967;-79
2023/09/03 00:33:09;;;;;;;;;;;;;;;19.95;78.34;100485.72;1087461;47;19942;-78
2023/09/03 00:34:10;;;;;;;;;;;;;;;19.88;79.48;100478.53;1087379;47;19967;-79
2023/09/03 00:35:13;;;;;;;;;;;;;;;19.88;78.60;100479.41;1087391;54;19943;-79
2023/09/03 00:36:14;;;;;;;;;;;;;;;19.89;78.96;100480.22;1087404;54;19967;-79
2023/09/03 00:37:17;;;;;;;;;;;;;;;19.89;78.80;100481.03;1087406;46;19968;-79
2023/09/03 00:38:18;;;;;;;;;;;;;;;19.91;78.35;100489.00;1087474;47;19943;-79
2023/09/03 00:39:21;;;;;;;;;;;;;;;19.92;78.21;100482.56;1087393;47;19955;-78
2023/09/03 00:40:22;;;;;;;;;;;;;;;19.83;78.76;100483.69;1087400;54;19943;-79
2023/09/03 00:41:25;;;;;;;;;;;;;;;19.79;78.98;100489.50;1087403;54;19975;-79
2023/09/03 00:42:26;;;;;;;;;;;;;;;19.76;79.74;100497.19;1087367;54;19943;-78
2023/09/03 00:43:32;;;;;;;;;;;;;;;19.78;79.30;100500.56;1087463;47;19943;-79
2023/09/03 00:44:33;;;;;;;;;;;;;;;19.79;79.07;100497.63;1087439;47;19966;-78
2023/09/03 00:45:34;;;;;;;;;;;;;;;19.79;79.54;100499.50;1087325;47;19966;-78
2023/09/03 00:46:37;;;;;;;;;;;;;;;19.76;79.80;100508.03;1087314;47;19949;-78
2023/09/03 00:47:38;;;;;;;;;;;;;;;19.75;79.87;100501.75;1087297;47;19942;-80
2023/09/03 00:48:42;;;;;;;;;;;;;;;19.74;79.58;100505.50;1087378;47;20022;-80
2023/09/03 00:49:43;;;;;;;;;;;;;;;19.71;79.86;100503.19;1087506;47;19942;-80
2023/09/03 00:50:45;;;;;;;;;;;;;;;19.71;79.36;100499.63;1087339;54;19943;-79
2023/09/03 00:51:48;;;;;;;;;;;;;;;19.70;79.38;100506.94;1087449;54;19950;-79
2023/09/03 00:52:49;;;;;;;;;;;;;;;19.70;78.99;100496.09;1087315;54;19943;-79
2023/09/03 00:53:53;;;;;;;;;;;;;;;19.71;79.52;100502.34;1087454;54;19949;-79
2023/09/03 00:54:57;;;;;;;;;;;;;;;19.66;79.50;100504.81;1087428;54;19943;-80
2023/09/03 00:55:58;;;;;;;;;;;;;;;19.64;79.17;100502.31;1087466;54;20379;-80
2023/09/03 00:57:01;;;;;;;;;;;;;;;19.68;78.92;100511.72;1087382;47;19942;-79
2023/09/03 00:58:02;;;;;;;;;;;;;;;19.66;78.73;100507.53;1087345;54;19966;-79
2023/09/03 00:59:08;;;;;;;;;;;;;;;19.68;78.62;100509.00;1087305;54;19967;-79
2023/09/03 01:00:09;;;;;;;;;;;;;;;19.67;79.34;100515.44;1087429;54;19943;-79
2023/09/03 01:01:12;;;;;;;;;;;;;;;19.66;78.52;100502.91;1087379;47;19968;-79
2023/09/03 01:02:16;;;;;;;;;;;;;;;19.69;78.39;100507.16;1087286;47;19949;-79
2023/09/03 01:03:21;;;;;;;;;;;;;;;19.70;78.36;100506.94;1087365;47;19947;-79
2023/09/03 01:04:21;;;;;;;;;;;;;;;19.68;79.04;100513.59;1087288;47;19942;-79
2023/09/03 01:05:25;;;;;;;;;;;;;;;19.67;78.70;100515.44;1087384;54;20320;-79
2023/09/03 01:06:25;;;;;;;;;;;;;;;19.58;79.63;100513.91;1086754;54;19950;-80
2023/09/03 01:07:30;;;;;;;;;;;;;;;19.51;79.32;100510.28;1086408;47;19943;-80
2023/09/03 01:08:31;;;;;;;;;;;;;;;19.41;80.00;100511.44;1086505;39;20357;-80
2023/09/03 01:09:34;;;;;;;;;;;;;;;19.34;80.51;100521.38;1086238;54;19958;-80
2023/09/03 01:10:37;;;;;;;;;;;;;;;19.33;80.39;100523.22;1085836;47;19954;-80
2023/09/03 01:11:43;;;;;;;;;;;;;;;19.27;80.83;100515.03;1085596;54;19951;-78
2023/09/03 01:12:52;;;;;;;;;;;;;;;19.21;80.90;100521.22;1085714;47;19942;-79
2023/09/03 01:13:57;;;;;;;;;;;;;;;19.18;81.04;100517.84;1086159;47;20019;-80
2023/09/03 01:15:05;;;;;;;;;;;;;;;19.16;81.45;100525.34;1086721;54;20041;-80
2023/09/03 01:16:08;;;;;;;;;;;;;;;19.16;81.45;100521.78;1086893;54;19973;-79
2023/09/03 01:17:14;;;;;;;;;;;;;;;19.17;81.64;100527.03;1086860;54;19978;-79
2023/09/03 01:18:17;;;;;;;;;;;;;;;19.13;81.94;100525.72;1086371;47;19942;-81
2023/09/03 01:19:31;;;;;;;;;;;;;;;19.10;82.05;100525.25;1086087;47;19981;-81
2023/09/03 01:20:33;;;;;;;;;;;;;;;19.09;82.03;100523.56;1085918;54;19976;-80
2023/09/03 01:21:41;;;;;;;;;;;;;;;19.09;81.83;100518.97;1086221;54;19951;-78
2023/09/03 01:22:56;;;;;;;;;;;;;;;19.13;81.67;100523.00;1086928;47;19977;-79
2023/09/03 01:24:05;;;;;;;;;;;;;;;19.09;82.49;100524.41;1086913;47;20006;-79
2023/09/03 01:25:15;;;;;;;;;;;;;;;19.09;81.86;100518.97;1086901;47;20323;-79
2023/09/03 01:26:28;;;;;;;;;;;;;;;19.11;81.70;100527.75;1086957;54;20683;-79
2023/09/03 01:27:33;;;;;;;;;;;;;;;19.10;82.38;100526.09;1086905;54;19976;-79
2023/09/03 01:28:41;;;;;;;;;;;;;;;19.09;82.27;100521.69;1086930;47;19943;-79
2023/09/03 01:29:42;;;;;;;;;;;;;;;19.03;82.14;100533.28;1086883;47;19959;-79
2023/09/03 01:30:46;;;;;;;;;;;;;;;18.97;82.97;100529.47;1086784;47;19943;-79
2023/09/03 01:31:48;;;;;;;;;;;;;;;18.95;82.73;100533.41;1086808;47;19968;-79
2023/09/03 01:32:52;;;;;;;;;;;;;;;18.92;83.04;100536.44;1086817;54;19942;-79
2023/09/03 01:34:01;;;;;;;;;;;;;;;18.93;82.88;100527.31;1086195;47;21440;-81
2023/09/03 01:35:02;;;;;;;;;;;;;;;18.99;82.31;100530.13;1085582;54;19947;-81
2023/09/03 01:36:06;;;;;;;;;;;;;;;19.01;81.82;100522.66;1085462;54;20034;-81
2023/09/03 01:37:08;;;;;;;;;;;;;;;19.01;81.98;100521.78;1085737;47;19947;-81
2023/09/03 01:38:11;;;;;;;;;;;;;;;19.06;81.43;100519.38;1086055;46;20029;-81
2023/09/03 01:39:12;;;;;;;;;;;;;;;19.08;81.33;100516.47;1085898;54;19975;-81
2023/09/03 01:40:15;;;;;;;;;;;;;;;19.07;81.60;100520.22;1085624;47;19973;-81
2023/09/03 01:41:16;;;;;;;;;;;;;;;19.05;81.70;100520.41;1085638;47;19951;-81
2023/09/03 01:42:19;;;;;;;;;;;;;;;19.08;81.76;100521.88;1085525;54;19947;-81
2023/09/03 01:43:21;;;;;;;;;;;;;;;19.11;81.15;100522.34;1085701;47;19950;-81
2023/09/03 01:44:27;;;;;;;;;;;;;;;19.13;80.90;100525.72;1088807;39;20616;-80
2023/09/03 01:45:35;;;;;;;;;;;;;;;19.16;80.62;100525.34;1084779;47;19950;-80
2023/09/03 01:46:41;;;;;;;;;;;;;;;19.21;80.46;100529.34;1086039;39;20948;-81
2023/09/03 01:47:46;;;;;;;;;;;;;;;19.15;81.01;100522.81;1084622;54;19947;-81
2023/09/03 01:49:00;;;;;;;;;;;;;;;19.13;81.40;100520.28;1084668;47;19953;-81
2023/09/03 01:50:06;;;;;;;;;;;;;;;19.11;81.47;100532.34;1084771;54;19954;-80
2023/09/03 01:51:15;;;;;;;;;;;;;;;19.16;80.76;100538.91;1084963;54;19958;-80
2023/09/03 01:52:22;;;;;;;;;;;;;;;19.16;80.87;100530.75;1084891;54;19950;-81
2023/09/03 01:53:30;;;;;;;;;;;;;;;19.17;80.93;100532.44;1085517;39;20704;-81
2023/09/03 01:54:33;;;;;;;;;;;;;;;19.20;80.65;100533.06;1084338;47;19976;-80
2023/09/03 01:55:38;;;;;;;;;;;;;;;19.22;80.24;100534.59;1085373;39;20447;-80
2023/09/03 01:56:42;;;;;;;;;;;;;;;19.26;79.72;100530.44;1084254;47;20018;-81
2023/09/03 01:57:49;;;;;;;;;;;;;;;19.27;79.77;100536.72;1085132;39;20425;-81
2023/09/03 01:58:52;;;;;;;;;;;;;;;19.28;79.57;100533.81;1085412;54;19958;-79
2023/09/03 01:59:59;;;;;;;;;;;;;;;19.30;79.57;100533.63;1084477;47;20076;-80
2023/09/03 02:01:02;;;;;;;;;;;;;;;19.31;79.51;100544.28;1085524;47;19976;-81
2023/09/03 02:02:05;;;;;;;;;;;;;;;19.31;79.69;100538.88;1084945;47;19972;-80
2023/09/03 02:03:08;;;;;;;;;;;;;;;19.30;79.54;100536.31;1085902;46;19991;-80
2023/09/03 02:04:09;;;;;;;;;;;;;;;19.29;79.46;100540.06;1085021;54;19950;-80
2023/09/03 02:05:14;;;;;;;;;;;;;;;19.32;79.53;100550.53;1085520;54;19969;-80
2023/09/03 02:06:14;;;;;;;;;;;;;;;19.33;79.25;100544.09;1086441;39;20776;-80
2023/09/03 02:07:17;;;;;;;;;;;;;;;19.35;78.91;100541.19;1086445;46;19957;-80
2023/09/03 02:08:18;;;;;;;;;;;;;;;19.34;78.91;100545.78;1085120;54;20023;-80
2023/09/03 02:09:21;;;;;;;;;;;;;;;19.29;79.16;100540.91;1085552;47;19954;-80
2023/09/03 02:10:22;;;;;;;;;;;;;;;19.24;79.68;100542.53;1084850;46;20002;-80
2023/09/03 02:11:25;;;;;;;;;;;;;;;19.13;80.64;100547.38;1085034;54;19947;-80
2023/09/03 02:12:26;;;;;;;;;;;;;;;19.00;81.24;100550.78;1084630;54;19947;-80
2023/09/03 02:13:29;;;;;;;;;;;;;;;18.94;81.77;100547.97;1084447;47;19976;-80
2023/09/03 02:14:30;;;;;;;;;;;;;;;18.80;82.46;100541.50;1084702;54;19972;-80
2023/09/03 02:15:35;;;;;;;;;;;;;;;18.71;82.65;100548.84;1085035;47;19951;-80
2023/09/03 02:16:36;;;;;;;;;;;;;;;18.66;82.91;100548.59;1085287;54;20517;-80
2023/09/03 02:17:39;;;;;;;;;;;;;;;18.63;83.03;100547.09;1085518;54;19946;-80
2023/09/03 02:18:40;;;;;;;;;;;;;;;18.63;83.00;100541.69;1085756;54;19946;-80
2023/09/03 02:19:43;;;;;;;;;;;;;;;18.60;83.30;100543.94;1085450;47;19946;-80
2023/09/03 02:20:44;;;;;;;;;;;;;;;18.61;83.16;100545.63;1084844;47;19946;-80
2023/09/03 02:21:48;;;;;;;;;;;;;;;18.60;83.09;100527.69;1085187;39;20525;-80
2023/09/03 02:22:49;;;;;;;;;;;;;;;18.60;83.02;100538.50;1085521;54;19970;-80
2023/09/03 02:23:52;;;;;;;;;;;;;;;18.58;82.93;100537.84;1085727;54;19950;-80
2023/09/03 02:24:52;;;;;;;;;;;;;;;18.59;82.65;100539.53;1085443;47;19942;-81
2023/09/03 02:26:03;;;;;;;;;;;;;;;18.55;82.94;100542.59;1085492;54;19974;-80
2023/09/03 02:27:04;;;;;;;;;;;;;;;18.54;83.48;100540.09;1086359;39;20457;-80
2023/09/03 02:28:09;;;;;;;;;;;;;;;18.51;83.36;100548.56;1086109;47;19951;-81
2023/09/03 02:29:10;;;;;;;;;;;;;;;18.43;84.19;100548.66;1085953;47;19956;-82
2023/09/03 02:30:16;;;;;;;;;;;;;;;18.36;84.51;100546.69;1086120;54;19963;-82
2023/09/03 02:31:19;;;;;;;;;;;;;;;18.34;84.42;100553.28;1086489;39;20579;-81
2023/09/03 02:32:22;;;;;;;;;;;;;;;18.36;84.44;100551.25;1086005;54;19951;-82
2023/09/03 02:33:23;;;;;;;;;;;;;;;18.31;84.42;100554.50;1086260;54;19947;-82
2023/09/03 02:34:26;;;;;;;;;;;;;;;18.31;84.61;100553.69;1086127;54;19973;-82
2023/09/03 02:35:28;;;;;;;;;;;;;;;18.29;84.17;100550.31;1086558;47;19967;-81
2023/09/03 02:36:31;;;;;;;;;;;;;;;18.24;84.86;100554.41;1087086;47;19946;-81
2023/09/03 02:37:32;;;;;;;;;;;;;;;18.19;85.05;100547.84;1087241;47;19950;-81
2023/09/03 02:38:35;;;;;;;;;;;;;;;18.17;85.08;100556.16;1087799;47;19954;-82
2023/09/03 02:39:43;;;;;;;;;;;;;;;18.17;85.03;100556.16;1087913;54;19954;-81
2023/09/03 02:40:46;;;;;;;;;;;;;;;18.17;84.79;100568.84;1087723;54;19943;-81
2023/09/03 02:41:47;;;;;;;;;;;;;;;18.15;84.91;100560.91;1087670;47;19948;-80
2023/09/03 02:42:50;;;;;;;;;;;;;;;18.15;84.91;100566.31;1087729;47;19953;-80
2023/09/03 02:43:51;;;;;;;;;;;;;;;18.13;85.28;100568.38;1087628;54;19950;-80
2023/09/03 02:44:54;;;;;;;;;;;;;;;18.12;85.31;100574.81;1087328;47;19979;-80
2023/09/03 02:45:54;;;;;;;;;;;;;;;18.13;85.17;100578.34;1087465;54;19951;-80
2023/09/03 02:47:06;;;;;;;;;;;;;;;18.14;84.84;100575.44;1087558;54;19943;-81
2023/09/03 02:48:08;;;;;;;;;;;;;;;18.14;84.96;100575.44;1087524;54;19943;-80
2023/09/03 02:49:17;;;;;;;;;;;;;;;18.10;84.84;100579.56;1087253;46;19992;-80
2023/09/03 02:50:19;;;;;;;;;;;;;;;18.05;85.26;100577.41;1087230;54;19935;-80
2023/09/03 02:51:22;;;;;;;;;;;;;;;18.05;85.24;100574.69;1086999;54;20006;-80
2023/09/03 02:52:23;;;;;;;;;;;;;;;18.05;85.57;100576.53;1086550;54;19947;-79
2023/09/03 02:53:28;;;;;;;;;;;;;;;18.05;85.62;100577.41;1086479;54;19972;-80
2023/09/03 02:54:29;;;;;;;;;;;;;;;18.05;85.37;100580.09;1093561;39;20596;-82
2023/09/03 02:55:32;;;;;;;;;;;;;;;18.06;85.19;100581.78;1087408;47;19935;-81
2023/09/03 02:56:33;;;;;;;;;;;;;;;18.08;84.81;100577.03;1086940;54;19950;-80
2023/09/03 02:57:37;;;;;;;;;;;;;;;18.09;84.75;100583.28;1086590;54;19950;-80
2023/09/03 02:58:38;;;;;;;;;;;;;;;18.15;84.93;100582.56;1086277;47;19947;-79
2023/09/03 02:59:44;;;;;;;;;;;;;;;18.18;84.44;100587.59;1085255;54;19978;-80
2023/09/03 03:00:45;;;;;;;;;;;;;;;18.23;84.55;100571.66;1085208;54;19950;-80
2023/09/03 03:01:48;;;;;;;;;;;;;;;18.28;84.20;100586.50;1084941;54;19957;-80
2023/09/03 03:02:52;;;;;;;;;;;;;;;18.32;83.82;100575.13;1084813;47;20842;-80
2023/09/03 03:03:55;;;;;;;;;;;;;;;18.36;83.51;100583.72;1085620;46;19950;-81
2023/09/03 03:04:56;;;;;;;;;;;;;;;18.36;83.49;100584.59;1085245;54;20005;-80
2023/09/03 03:05:59;;;;;;;;;;;;;;;18.39;83.22;100580.66;1085856;47;19943;-81
2023/09/03 03:07:00;;;;;;;;;;;;;;;18.42;83.31;100580.28;1086810;47;20049;-81
2023/09/03 03:08:03;;;;;;;;;;;;;;;18.47;82.88;100575.19;1086932;54;19974;-81
2023/09/03 03:09:04;;;;;;;;;;;;;;;18.46;82.88;100581.59;1086401;47;19942;-81
2023/09/03 03:10:08;;;;;;;;;;;;;;;18.49;82.89;100581.25;1086313;54;19947;-81
2023/09/03 03:11:10;;;;;;;;;;;;;;;18.50;82.69;100579.38;1086206;47;19976;-82
2023/09/03 03:12:13;;;;;;;;;;;;;;;18.54;82.33;100576.13;1086966;54;19938;-81
2023/09/03 03:13:13;;;;;;;;;;;;;;;18.55;82.16;100583.22;1086858;54;19968;-81
2023/09/03 03:14:17;;;;;;;;;;;;;;;18.56;82.32;100584.06;1086173;47;19943;-80
2023/09/03 03:15:18;;;;;;;;;;;;;;;18.58;82.22;100592.00;1086667;54;19977;-81
2023/09/03 03:16:21;;;;;;;;;;;;;;;18.60;82.10;100588.06;1085906;47;19950;-80
2023/09/03 03:17:23;;;;;;;;;;;;;;;18.55;82.07;100594.03;1086301;39;21122;-81
2023/09/03 03:18:29;;;;;;;;;;;;;;;18.53;nan;100595.25;1085585;54;19954;-82
2023/09/03 03:19:29;;;;;;;;;;;;;;;18.51;82.37;100598.16;1085852;47;20034;-81
2023/09/03 03:20:33;;;;;;;;;;;;;;;18.51;82.11;100600.00;1087470;54;19943;-82
2023/09/03 03:21:35;;;;;;;;;;;;;;;18.50;82.24;100596.47;1087375;54;19943;-83
2023/09/03 03:22:36;;;;;;;;;;;;;;;18.51;82.47;100603.56;1087586;47;19981;-84
2023/09/03 03:23:40;;;;;;;;;;;;;;;18.53;82.10;100603.38;1087009;54;19950;-81
2023/09/03 03:24:41;;;;;;;;;;;;;;;18.58;81.94;100616.38;1085463;47;19947;-81
2023/09/03 03:25:44;;;;;;;;;;;;;;;18.57;82.01;100607.38;1085354;47;20522;-81
2023/09/03 03:26:45;;;;;;;;;;;;;;;18.60;82.35;100611.63;1085259;47;19977;-81
2023/09/03 03:27:48;;;;;;;;;;;;;;;18.54;82.36;100614.00;1085445;46;19995;-81
2023/09/03 03:28:49;;;;;;;;;;;;;;;18.55;82.13;100604.88;1085340;54;19943;-81
2023/09/03 03:29:54;;;;;;;;;;;;;;;18.61;82.06;100613.31;1086608;54;20616;-81
2023/09/03 03:30:55;;;;;;;;;;;;;;;18.60;82.03;100603.50;1090563;39;20845;-81
2023/09/03 03:31:59;;;;;;;;;;;;;;;18.59;81.84;100604.50;1086396;47;20002;-81
2023/09/03 03:32:59;;;;;;;;;;;;;;;18.61;81.91;100597.06;1086369;54;19995;-82
2023/09/03 03:34:05;;;;;;;;;;;;;;;18.61;81.56;100602.47;1087011;47;19943;-82
2023/09/03 03:35:06;;;;;;;;;;;;;;;18.60;81.57;100598.91;1089347;39;20810;-82
2023/09/03 03:36:12;;;;;;;;;;;;;;;18.60;81.81;100601.59;1087067;54;19951;-81
2023/09/03 03:37:13;;;;;;;;;;;;;;;18.56;81.61;100594.91;1087165;47;19973;-82
2023/09/03 03:38:16;;;;;;;;;;;;;;;18.54;81.84;100603.19;1087246;39;20555;-82
2023/09/03 03:39:17;;;;;;;;;;;;;;;18.49;82.04;100600.19;1087259;54;19943;-81
2023/09/03 03:40:20;;;;;;;;;;;;;;;18.47;82.45;100595.97;1086926;54;19951;-81
2023/09/03 03:41:21;;;;;;;;;;;;;;;18.44;82.25;100597.19;1087162;46;19942;-82
2023/09/03 03:42:24;;;;;;;;;;;;;;;18.46;82.26;100592.44;1087787;39;20642;-82
2023/09/03 03:43:28;;;;;;;;;;;;;;;18.49;82.25;100591.22;1087336;54;19976;-83
2023/09/03 03:44:34;;;;;;;;;;;;;;;18.49;82.25;100596.63;1087294;47;19942;-82
2023/09/03 03:45:40;;;;;;;;;;;;;;;18.50;82.33;100593.75;1087638;54;19980;-82
2023/09/03 03:46:44;;;;;;;;;;;;;;;18.49;82.09;100594.78;1087403;47;19969;-81
2023/09/03 03:47:44;;;;;;;;;;;;;;;18.49;82.46;100600.19;1087162;47;19976;-82
2023/09/03 03:48:48;;;;;;;;;;;;;;;18.47;82.45;100598.69;1087558;54;19969;-82
2023/09/03 03:49:51;;;;;;;;;;;;;;;18.48;82.24;100581.41;1090878;31;20638;-83
2023/09/03 03:50:56;;;;;;;;;;;;;;;18.49;82.60;100583.09;1087457;54;20018;-81
2023/09/03 03:51:57;;;;;;;;;;;;;;;18.47;82.51;100591.41;1087828;39;20473;-84
2023/09/03 03:53:00;;;;;;;;;;;;;;;18.45;82.60;100587.22;1087746;54;19939;-84
2023/09/03 03:54:04;;;;;;;;;;;;;;;18.45;82.61;100595.34;1087438;54;19943;-84
2023/09/03 03:55:07;;;;;;;;;;;;;;;18.46;82.58;100587.03;1087820;47;19943;-83
2023/09/03 03:56:08;;;;;;;;;;;;;;;18.46;82.63;100587.03;1087243;54;19951;-82
2023/09/03 03:57:12;;;;;;;;;;;;;;;18.45;82.60;100587.22;1086840;47;20545;-83
2023/09/03 03:58:12;;;;;;;;;;;;;;;18.45;82.88;100593.47;1087227;47;19943;-81
2023/09/03 03:59:16;;;;;;;;;;;;;;;18.48;82.60;100593.09;1086988;47;19946;-81
2023/09/03 04:00:17;;;;;;;;;;;;;;;18.48;82.67;100595.81;1087286;47;19942;-81
2023/09/03 04:01:18;;;;;;;;;;;;;;;18.47;82.75;100594.13;1087422;39;20615;-82
2023/09/03 04:02:22;;;;;;;;;;;;;;;18.44;82.76;100591.78;1087400;47;20742;-83
2023/09/03 04:03:22;;;;;;;;;;;;;;;18.35;83.50;100601.00;1087525;54;19998;-82
2023/09/03 04:04:26;;;;;;;;;;;;;;;18.30;83.51;100595.28;1087107;47;19958;-82
2023/09/03 04:05:29;;;;;;;;;;;;;;;18.27;84.08;100595.66;1089471;39;20755;-82
2023/09/03 04:06:34;;;;;;;;;;;;;;;18.26;84.36;100604.78;1087382;54;19934;-82
2023/09/03 04:07:38;;;;;;;;;;;;;;;18.21;84.35;100595.38;1087488;54;19954;-82
2023/09/03 04:08:43;;;;;;;;;;;;;;;18.21;84.42;100603.50;1087194;54;19969;-79
2023/09/03 04:09:44;;;;;;;;;;;;;;;18.20;84.70;100596.38;1087000;47;20018;-80
2023/09/03 04:10:47;;;;;;;;;;;;;;;18.18;84.64;100603.00;1087011;47;20038;-80
2023/09/03 04:12:00;;;;;;;;;;;;;;;18.16;85.07;100605.88;1087040;54;19942;-80
2023/09/03 04:17:20;;;;;;;;;;;;;;;18.00;86.04;100616.81;1086452;54;19951;-79
2023/09/03 04:20:20;;;;;;;;;;;;;;;17.95;86.15;100620.03;1086906;47;20003;-79
2023/09/03 04:21:23;;;;;;;;;;;;;;;17.95;86.22;100613.81;1087525;39;20248;-79
2023/09/03 04:22:34;;;;;;;;;;;;;;;17.96;85.95;100623.56;1087086;54;19942;-79
2023/09/03 04:25:10;;;;;;;;;;;;;;;17.86;86.13;100616.53;1087436;47;19950;-79
2023/09/03 04:26:11;;;;;;;;;;;;;;;17.84;86.48;100629.41;1087389;47;19950;-79
2023/09/03 04:27:14;;;;;;;;;;;;;;;17.82;86.68;100627.88;1087409;54;19949;-78
2023/09/03 04:28:15;;;;;;;;;;;;;;;17.74;86.89;100626.09;1087330;47;19942;-79
2023/09/03 04:29:18;;;;;;;;;;;;;;;17.65;87.08;100619.06;1087883;54;19967;-79
2023/09/03 04:30:18;;;;;;;;;;;;;;;17.62;87.38;100622.94;1087785;47;19938;-79
2023/09/03 04:31:22;;;;;;;;;;;;;;;17.60;87.64;100623.13;1087688;47;19967;-79
2023/09/03 04:32:23;;;;;;;;;;;;;;;17.55;87.58;100628.22;1087765;54;19954;-79
2023/09/03 04:33:26;;;;;;;;;;;;;;;17.52;87.78;100628.56;1087660;54;19942;-79
2023/09/03 04:34:27;;;;;;;;;;;;;;;17.52;87.72;100625.84;1087614;54;20284;-80
2023/09/03 04:35:30;;;;;;;;;;;;;;;17.52;87.73;100625.84;1087461;47;19973;-79
2023/09/03 04:36:34;;;;;;;;;;;;;;;17.52;87.47;100627.72;1087420;54;19942;-79
2023/09/03 04:37:37;;;;;;;;;;;;;;;17.50;87.73;100630.59;1087416;47;19948;-79
2023/09/03 04:38:38;;;;;;;;;;;;;;;17.56;87.48;100629.06;1087409;51;19942;-79
2023/09/03 04:39:41;;;;;;;;;;;;;;;17.57;87.30;100634.28;1089339;39;20842;-79
2023/09/03 04:40:44;;;;;;;;;;;;;;;17.51;87.70;100632.28;1087164;47;19975;-80
2023/09/03 04:41:48;;;;;;;;;;;;;;;17.51;87.45;100636.84;1086712;47;19950;-80
2023/09/03 04:42:49;;;;;;;;;;;;;;;17.51;87.69;100634.97;1086907;54;20660;-79
2023/09/03 04:43:53;;;;;;;;;;;;;;;17.44;87.93;100631.31;1087129;54;19951;-79
2023/09/03 04:44:54;;;;;;;;;;;;;;;17.42;87.88;100631.50;1086488;47;19946;-79
2023/09/03 04:45:58;;;;;;;;;;;;;;;17.43;87.68;100640.44;1086970;54;19986;-79
2023/09/03 04:46:58;;;;;;;;;;;;;;;17.38;88.13;100630.16;1087027;54;19942;-79
2023/09/03 04:47:59;;;;;;;;;;;;;;;17.34;88.46;100638.78;1087941;39;21004;-80
2023/09/03 04:49:02;;;;;;;;;;;;;;;17.29;88.74;100642.84;1087021;47;20999;-79
2023/09/03 04:50:03;;;;;;;;;;;;;;;17.29;88.63;100642.00;1086926;54;19949;-80
2023/09/03 04:51:07;;;;;;;;;;;;;;;17.27;88.97;100644.91;1087039;54;19980;-79
2023/09/03 04:52:10;;;;;;;;;;;;;;;17.22;89.12;100638.31;1086885;47;19950;-80
2023/09/03 04:53:14;;;;;;;;;;;;;;;17.20;89.43;100651.16;1088269;39;20726;-80
2023/09/03 04:54:14;;;;;;;;;;;;;;;17.22;89.29;100652.66;1086944;47;20635;-79
2023/09/03 04:55:16;;;;;;;;;;;;;;;17.18;89.46;100654.03;1087024;54;19955;-83
2023/09/03 04:56:19;;;;;;;;;;;;;;;17.20;89.29;100662.78;1087078;54;19949;-79
2023/09/03 04:57:19;;;;;;;;;;;;;;;17.21;89.17;100661.78;1086864;47;19942;-80
2023/09/03 04:58:23;;;;;;;;;;;;;;;17.25;89.06;100673.94;1086853;54;19950;-79
2023/09/03 04:59:23;;;;;;;;;;;;;;;17.34;88.45;100682.00;1086800;47;19942;-80
2023/09/03 05:00:26;;;;;;;;;;;;;;;17.37;88.20;100682.50;1086269;54;19950;-80
2023/09/03 05:01:27;;;;;;;;;;;;;;;17.44;87.93;100693.47;1086317;54;19978;-80
2023/09/03 05:02:31;;;;;;;;;;;;;;;17.48;87.66;100692.09;1086417;54;19946;-79
2023/09/03 05:03:31;;;;;;;;;;;;;;;17.52;87.60;100696.13;1086812;54;19942;-80
2023/09/03 05:04:35;;;;;;;;;;;;;;;17.53;87.06;100692.41;1086730;54;19971;-79
2023/09/03 05:05:39;;;;;;;;;;;;;;;17.54;87.71;100701.34;1086766;47;19942;-79
2023/09/03 05:06:42;;;;;;;;;;;;;;;17.57;87.18;100709.97;1086682;47;19951;-78
2023/09/03 05:07:47;;;;;;;;;;;;;;;17.62;86.59;100704.03;1086668;47;20006;-78
2023/09/03 05:08:50;;;;;;;;;;;;;;;17.62;86.34;100702.19;1086768;47;19942;-79
2023/09/03 05:09:51;;;;;;;;;;;;;;;17.69;86.56;100723.09;1086929;54;20023;-78
2023/09/03 05:10:54;;;;;;;;;;;;;;;17.68;86.21;100716.88;1086845;54;19970;-78
2023/09/03 05:11:55;;;;;;;;;;;;;;;17.68;85.83;100716.00;1087987;39;20602;-79
2023/09/03 05:12:58;;;;;;;;;;;;;;;17.70;85.77;100711.28;1086808;54;19993;-79
2023/09/03 05:13:59;;;;;;;;;;;;;;;17.73;85.50;100709.06;1086956;47;19954;-79
2023/09/03 05:15:02;;;;;;;;;;;;;;;17.77;85.41;100710.41;1086791;47;19942;-79
2023/09/03 05:16:04;;;;;;;;;;;;;;;17.81;85.13;100702.78;1086711;47;19943;-78
2023/09/03 05:17:07;;;;;;;;;;;;;;;17.83;84.70;100702.59;1086718;47;20806;-80
2023/09/03 05:18:09;;;;;;;;;;;;;;;17.85;84.94;100696.00;1086152;54;19942;-80
2023/09/03 05:19:14;;;;;;;;;;;;;;;17.80;84.62;100692.97;1086163;47;20002;-79
2023/09/03 05:20:15;;;;;;;;;;;;;;;17.73;85.22;100690.13;1086923;54;19951;-79
2023/09/03 05:21:18;;;;;;;;;;;;;;;17.69;85.40;100687.94;1086901;54;20310;-79
2023/09/03 05:22:19;;;;;;;;;;;;;;;17.65;85.65;100692.03;1086820;54;20308;-79
2023/09/03 05:23:25;;;;;;;;;;;;;;;17.61;85.91;100695.09;1086780;47;19969;-79
2023/09/03 05:24:25;;;;;;;;;;;;;;;17.64;85.65;100698.47;1086780;54;19969;-79
2023/09/03 05:25:29;;;;;;;;;;;;;;;17.61;86.04;100702.38;1086678;47;19970;-79
2023/09/03 05:26:31;;;;;;;;;;;;;;;17.61;85.94;100697.78;1086763;54;19999;-79
2023/09/03 05:27:34;;;;;;;;;;;;;;;17.61;85.91;100689.69;1088043;39;20556;-79
2023/09/03 05:28:35;;;;;;;;;;;;;;;17.63;86.01;100692.19;1086775;47;19970;-79
2023/09/03 05:29:38;;;;;;;;;;;;;;;17.66;85.75;100691.03;1086762;47;19970;-79
2023/09/03 05:30:39;;;;;;;;;;;;;;;17.65;85.68;100689.34;1087264;39;20319;-79
2023/09/03 05:31:42;;;;;;;;;;;;;;;17.55;86.43;100685.00;1086590;47;19952;-78
2023/09/03 05:32:43;;;;;;;;;;;;;;;17.54;86.51;100694.09;1089134;39;20360;-79
2023/09/03 05:33:46;;;;;;;;;;;;;;;17.51;86.99;100689.03;1086710;47;19970;-79
2023/09/03 05:34:47;;;;;;;;;;;;;;;17.49;87.13;100684.84;1086744;54;19943;-78
2023/09/03 05:35:50;;;;;;;;;;;;;;;17.49;86.95;100682.97;1086740;54;19949;-80
2023/09/03 05:36:51;;;;;;;;;;;;;;;17.51;86.98;100693.63;1086699;54;19943;-79
2023/09/03 05:37:54;;;;;;;;;;;;;;;17.48;87.25;100692.09;1086408;47;19943;-80